createdAt,value
2023-03-28T00:00:51.030Z,3.47
2023-03-28T00:03:22.811Z,3.51
2023-03-28T00:06:16.763Z,3.51
2023-03-28T00:08:46.021Z,3.40
2023-03-28T00:11:19.668Z,3.41
2023-03-28T00:13:58.280Z,3.33
2023-03-28T00:16:32.626Z,3.19
2023-03-28T00:19:05.896Z,3.08
2023-03-28T00:21:41.550Z,3.00
2023-03-28T00:24:14.010Z,2.93
2023-03-28T00:26:42.790Z,2.91
2023-03-28T00:29:12.261Z,2.84
2023-03-28T00:31:39.868Z,2.68
2023-03-28T00:34:07.220Z,2.74
2023-03-28T00:36:34.769Z,2.72
2023-03-28T00:39:07.036Z,2.50
2023-03-28T00:41:39.988Z,2.61
2023-03-28T00:44:38.023Z,2.66
2023-03-28T00:47:06.496Z,2.64
2023-03-28T00:49:33.987Z,2.43
2023-03-28T00:52:04.382Z,2.33
2023-03-28T00:54:39.709Z,2.43
2023-03-28T00:57:08.377Z,2.36
2023-03-28T00:59:37.430Z,2.31
2023-03-28T01:02:06.448Z,2.28
2023-03-28T01:04:46.436Z,2.29
2023-03-28T01:07:16.467Z,2.16
2023-03-28T01:09:43.649Z,2.24
2023-03-28T01:12:11.764Z,2.21
2023-03-28T01:14:40.146Z,1.88
2023-03-28T01:17:08.925Z,1.98
2023-03-28T01:19:42.697Z,2.16
2023-03-28T01:22:13.922Z,2.20
2023-03-28T01:25:18.665Z,2.18
2023-03-28T01:28:05.776Z,2.11
2023-03-28T01:31:19.176Z,2.12
2023-03-28T01:34:30.464Z,2.04
2023-03-28T01:37:00.518Z,1.98
2023-03-28T01:39:43.205Z,1.98
2023-03-28T01:42:34.543Z,1.92
2023-03-28T01:45:09.479Z,1.90
2023-03-28T01:47:41.287Z,1.90
2023-03-28T01:50:21.517Z,1.89
2023-03-28T01:53:14.233Z,1.81
2023-03-28T01:55:48.777Z,1.83
2023-03-28T01:58:37.724Z,1.77
2023-03-28T02:01:23.095Z,1.64
2023-03-28T02:04:01.748Z,1.63
2023-03-28T02:06:38.852Z,1.61
2023-03-28T02:09:13.480Z,1.59
2023-03-28T02:12:33.687Z,1.61
2023-03-28T02:15:15.912Z,1.58
2023-03-28T02:18:12.362Z,1.53
2023-03-28T02:21:09.543Z,1.46
2023-03-28T02:23:52.467Z,1.52
2023-03-28T02:26:33.601Z,1.05
2023-03-28T02:29:30.757Z,1.50
2023-03-28T02:32:27.120Z,1.64
2023-03-28T02:34:55.516Z,1.64
2023-03-28T02:38:03.147Z,1.50
2023-03-28T02:40:39.608Z,1.56
2023-03-28T02:43:15.866Z,1.64
2023-03-28T02:46:05.430Z,1.65
2023-03-28T02:48:35.318Z,1.66
2023-03-28T02:51:23.757Z,1.58
2023-03-28T02:53:50.813Z,1.66
2023-03-28T02:56:20.253Z,1.67
2023-03-28T02:59:31.616Z,1.60
2023-03-28T03:01:59.433Z,1.71
2023-03-28T03:04:26.572Z,1.70
2023-03-28T03:06:53.679Z,1.75
2023-03-28T03:09:20.918Z,1.73
2023-03-28T03:11:48.010Z,1.61
2023-03-28T03:14:14.951Z,1.65
2023-03-28T03:16:43.461Z,1.73
2023-03-28T03:19:11.565Z,1.71
2023-03-28T03:21:38.542Z,1.47
2023-03-28T03:24:05.876Z,1.63
2023-03-28T03:26:32.995Z,1.50
2023-03-28T03:29:04.526Z,1.41
2023-03-28T03:31:32.921Z,1.31
2023-03-28T03:34:19.025Z,1.40
2023-03-28T03:36:55.332Z,1.36
2023-03-28T03:39:23.428Z,1.38
2023-03-28T03:41:50.474Z,1.37
2023-03-28T03:44:17.521Z,1.36
2023-03-28T03:46:44.703Z,1.41
2023-03-28T03:49:13.221Z,1.32
2023-03-28T03:51:41.308Z,1.25
2023-03-28T03:54:13.397Z,1.13
2023-03-28T03:56:43.108Z,1.16
2023-03-28T03:59:11.690Z,1.14
2023-03-28T04:01:41.633Z,1.17
2023-03-28T04:04:28.311Z,1.21
2023-03-28T04:07:27.387Z,1.13
2023-03-28T04:09:57.062Z,1.28
2023-03-28T04:12:26.889Z,1.25
2023-03-28T04:14:55.845Z,1.22
2023-03-28T04:17:35.433Z,1.20
2023-03-28T04:20:13.846Z,1.23
2023-03-28T04:23:01.008Z,1.26
2023-03-28T04:25:29.958Z,1.29
2023-03-28T04:28:03.961Z,1.32
2023-03-28T04:30:36.400Z,1.37
2023-03-28T04:33:25.340Z,1.46
2023-03-28T04:36:00.281Z,1.40
2023-03-28T04:38:36.313Z,1.39
2023-03-28T04:41:41.682Z,1.31
2023-03-28T04:44:26.047Z,1.41
2023-03-28T04:47:01.792Z,1.32
2023-03-28T04:49:28.980Z,1.42
2023-03-28T04:51:56.254Z,1.43
2023-03-28T04:54:23.223Z,1.45
2023-03-28T04:57:06.003Z,1.37
2023-03-28T04:59:43.152Z,0.21
2023-03-28T05:02:15.739Z,1.31
2023-03-28T05:04:45.683Z,1.29
2023-03-28T05:07:15.610Z,1.22
2023-03-28T05:09:42.818Z,1.32
2023-03-28T05:12:09.617Z,1.34
2023-03-28T05:14:54.158Z,1.26
2023-03-28T05:17:21.300Z,1.39
2023-03-28T05:19:48.128Z,1.42
2023-03-28T05:22:18.504Z,1.39
2023-03-28T05:24:45.577Z,1.26
2023-03-28T05:27:20.716Z,1.47
2023-03-28T05:29:48.327Z,1.57
2023-03-28T05:32:17.239Z,1.57
2023-03-28T05:34:45.909Z,1.11
2023-03-28T05:37:13.380Z,1.54
2023-03-28T05:39:59.791Z,1.30
2023-03-28T05:42:31.366Z,1.40
2023-03-28T05:44:58.700Z,1.33
2023-03-28T05:47:54.585Z,1.45
2023-03-28T05:50:24.220Z,1.40
2023-03-28T05:52:56.227Z,1.36
2023-03-28T05:55:26.505Z,1.40
2023-03-28T05:57:53.916Z,1.29
2023-03-28T06:00:24.507Z,1.42
2023-03-28T06:02:52.844Z,1.38
2023-03-28T06:05:29.405Z,1.55
2023-03-28T06:07:56.940Z,1.70
2023-03-28T06:10:25.966Z,1.59
2023-03-28T06:13:11.872Z,1.79
2023-03-28T06:15:38.901Z,1.95
2023-03-28T06:18:09.110Z,1.83
2023-03-28T06:20:43.525Z,1.87
2023-03-28T06:23:11.179Z,1.93
2023-03-28T06:25:38.163Z,1.81
2023-03-28T06:28:05.513Z,1.89
2023-03-28T06:30:37.994Z,1.98
2023-03-28T06:33:08.273Z,2.08
2023-03-28T06:35:36.113Z,1.97
2023-03-28T06:38:03.597Z,1.89
2023-03-28T06:40:31.085Z,1.88
2023-03-28T06:42:59.982Z,1.95
2023-03-28T06:45:41.047Z,1.88
2023-03-28T06:48:12.532Z,1.92
2023-03-28T06:50:59.122Z,2.04
2023-03-28T06:53:28.136Z,2.05
2023-03-28T06:55:55.809Z,2.00
2023-03-28T06:58:23.752Z,1.92
2023-03-28T07:00:59.552Z,2.08
2023-03-28T07:03:37.944Z,2.17
2023-03-28T07:06:08.073Z,2.24
2023-03-28T07:08:36.006Z,2.09
2023-03-28T07:11:03.702Z,2.12
2023-03-28T07:13:31.957Z,2.25
2023-03-28T07:16:15.577Z,2.23
2023-03-28T07:18:44.078Z,2.18
2023-03-28T07:21:21.319Z,2.22
2023-03-28T07:23:48.375Z,2.24
2023-03-28T07:26:19.594Z,2.21
2023-03-28T07:28:47.147Z,2.26
2023-03-28T07:31:14.166Z,2.41
2023-03-28T07:33:41.376Z,2.10
2023-03-28T07:36:15.754Z,2.42
2023-03-28T07:38:49.035Z,2.29
2023-03-28T07:41:18.935Z,2.33
2023-03-28T07:43:45.930Z,2.53
2023-03-28T07:46:15.134Z,2.46
2023-03-28T07:48:42.529Z,2.32
2023-03-28T07:51:11.314Z,2.06
2023-03-28T07:53:39.122Z,2.10
2023-03-28T07:56:12.190Z,2.03
2023-03-28T07:59:14.021Z,2.19
2023-03-28T08:01:45.752Z,2.06
2023-03-28T08:04:14.012Z,2.25
2023-03-28T08:07:02.300Z,2.22
2023-03-28T08:09:29.352Z,2.43
2023-03-28T08:12:09.407Z,2.64
2023-03-28T08:14:36.320Z,2.58
2023-03-28T08:17:03.939Z,2.64
2023-03-28T08:19:31.465Z,2.82
2023-03-28T08:22:11.678Z,3.09
2023-03-28T08:24:47.032Z,3.37
2023-03-28T08:27:19.265Z,3.42
2023-03-28T08:29:49.875Z,3.52
2023-03-28T08:32:16.876Z,3.55
2023-03-28T08:34:44.207Z,3.55
2023-03-28T08:37:15.327Z,3.48
2023-03-28T08:39:45.780Z,3.50
2023-03-28T08:42:38.313Z,3.52
2023-03-28T08:45:26.949Z,3.71
2023-03-28T08:48:19.443Z,3.83
2023-03-28T08:50:53.533Z,3.76
2023-03-28T08:53:26.899Z,3.67
2023-03-28T08:55:56.460Z,3.68
2023-03-28T08:58:27.234Z,3.65
2023-03-28T09:00:54.434Z,3.76
2023-03-28T09:03:24.224Z,3.83
2023-03-28T09:06:37.043Z,3.71
2023-03-28T09:09:50.021Z,3.63
2023-03-28T09:12:50.968Z,3.90
2023-03-28T09:15:27.855Z,3.90
2023-03-28T09:18:04.205Z,3.96
2023-03-28T09:20:50.343Z,4.08
2023-03-28T09:23:47.706Z,4.13
2023-03-28T09:26:27.969Z,3.96
2023-03-28T09:29:10.301Z,3.95
2023-03-28T09:31:48.054Z,4.05
2023-03-28T09:34:23.102Z,3.96
2023-03-28T09:36:56.430Z,3.87
2023-03-28T09:39:34.965Z,3.89
2023-03-28T09:42:13.970Z,3.79
2023-03-28T09:45:23.989Z,3.81
2023-03-28T09:48:00.742Z,3.90
2023-03-28T09:50:34.607Z,4.17
2023-03-28T09:53:02.992Z,4.25
2023-03-28T09:55:31.185Z,4.14
2023-03-28T09:58:12.327Z,4.08
2023-03-28T10:01:23.375Z,3.60
2023-03-28T10:04:28.270Z,3.82
2023-03-28T10:07:42.877Z,3.69
2023-03-28T10:10:21.783Z,3.61
2023-03-28T10:12:58.907Z,3.87
2023-03-28T10:15:35.208Z,4.19
2023-03-28T10:18:34.651Z,4.68
2023-03-28T10:21:37.193Z,4.74
2023-03-28T10:24:20.261Z,4.57
2023-03-28T10:26:57.126Z,4.63
2023-03-28T10:29:27.079Z,4.49
2023-03-28T10:31:55.086Z,4.56
2023-03-28T10:35:17.708Z,4.29
2023-03-28T10:37:55.104Z,4.15
2023-03-28T10:40:33.184Z,4.10
2023-03-28T10:43:03.048Z,4.19
2023-03-28T10:45:51.139Z,4.44
2023-03-28T10:48:36.555Z,4.62
2023-03-28T10:51:17.490Z,4.46
2023-03-28T10:53:52.218Z,4.23
2023-03-28T10:56:38.600Z,4.35
2023-03-28T10:59:10.933Z,4.32
2023-03-28T11:01:44.562Z,4.43
2023-03-28T11:04:19.406Z,4.43
2023-03-28T11:06:54.949Z,4.39
2023-03-28T11:09:42.546Z,4.51
2023-03-28T11:12:59.083Z,4.36
2023-03-28T11:15:32.714Z,4.06
2023-03-28T11:18:28.056Z,4.17
2023-03-28T11:21:35.537Z,4.31
2023-03-28T11:24:17.605Z,4.51
2023-03-28T11:27:16.100Z,4.65
2023-03-28T11:29:53.855Z,4.75
2023-03-28T11:32:31.000Z,4.81
2023-03-28T11:35:14.080Z,4.78
2023-03-28T11:37:59.437Z,4.94
2023-03-28T11:40:44.956Z,4.91
2023-03-28T11:43:19.956Z,5.10
2023-03-28T11:45:53.182Z,5.08
2023-03-28T11:48:39.206Z,4.94
2023-03-28T11:51:34.028Z,4.49
2023-03-28T11:54:10.723Z,4.41
2023-03-28T11:56:52.200Z,4.44
2023-03-28T11:59:57.895Z,4.46
2023-03-28T12:02:30.382Z,4.67
2023-03-28T12:05:05.497Z,4.65
2023-03-28T12:07:38.116Z,4.69
2023-03-28T12:10:28.474Z,4.51
2023-03-28T12:13:04.861Z,4.57
2023-03-28T12:15:50.183Z,4.72
2023-03-28T12:19:01.583Z,4.76
2023-03-28T12:21:57.520Z,4.56
2023-03-28T12:24:53.127Z,4.44
2023-03-28T12:27:51.072Z,4.41
2023-03-28T12:30:35.809Z,4.45
2023-03-28T12:33:32.426Z,4.21
2023-03-28T12:37:04.125Z,4.14
2023-03-28T12:39:55.783Z,3.93
2023-03-28T12:42:29.268Z,4.01
2023-03-28T12:45:01.844Z,4.07
2023-03-28T12:47:38.662Z,4.33
2023-03-28T12:50:31.052Z,4.36
2023-03-28T12:52:59.489Z,4.40
2023-03-28T12:55:48.459Z,4.24
2023-03-28T12:58:22.961Z,4.45
2023-03-28T13:01:18.176Z,4.59
2023-03-28T13:04:29.467Z,4.64
2023-03-28T13:07:47.980Z,4.88
2023-03-28T13:10:27.116Z,4.71
2023-03-28T13:13:19.639Z,4.70
2023-03-28T13:16:05.795Z,4.44
2023-03-28T13:18:34.666Z,4.59
2023-03-28T13:21:05.102Z,4.65
2023-03-28T13:23:44.967Z,4.49
2023-03-28T13:26:12.601Z,4.56
2023-03-28T13:28:51.674Z,4.67
2023-03-28T13:31:20.547Z,4.94
2023-03-28T13:33:52.926Z,5.14
2023-03-28T13:36:23.455Z,5.30
2023-03-28T13:39:20.469Z,5.34
2023-03-28T13:41:47.606Z,5.10
2023-03-28T13:44:20.265Z,5.08
2023-03-28T13:46:52.936Z,4.98
2023-03-28T13:49:31.713Z,5.06
2023-03-28T13:52:14.896Z,5.06
2023-03-28T13:54:42.291Z,5.05
2023-03-28T13:57:20.801Z,5.16
2023-03-28T14:00:05.143Z,5.26
2023-03-28T14:02:47.013Z,5.30
2023-03-28T14:05:32.171Z,5.46
2023-03-28T14:08:20.844Z,5.66
2023-03-28T14:10:51.094Z,5.70
2023-03-28T14:13:31.024Z,5.72
2023-03-28T14:15:58.448Z,5.79
2023-03-28T14:19:02.850Z,5.54
2023-03-28T14:21:31.943Z,5.55
2023-03-28T14:24:01.374Z,5.38
2023-03-28T14:26:32.182Z,5.54
2023-03-28T14:29:06.109Z,5.43
2023-03-28T14:31:37.382Z,5.43
2023-03-28T14:34:26.572Z,5.00
2023-03-28T14:36:59.197Z,4.98
2023-03-28T14:39:34.987Z,4.90
2023-03-28T14:42:05.598Z,4.86
2023-03-28T14:44:37.466Z,4.95
2023-03-28T14:47:04.898Z,4.99
2023-03-28T14:49:32.799Z,5.10
2023-03-28T14:52:04.515Z,4.98
2023-03-28T14:54:34.906Z,4.89
2023-03-28T14:57:04.497Z,4.78
2023-03-28T14:59:33.878Z,4.77
2023-03-28T15:02:04.380Z,4.84
2023-03-28T15:04:32.164Z,4.82
2023-03-28T15:06:59.137Z,4.68
2023-03-28T15:09:33.037Z,4.78
2023-03-28T15:12:09.171Z,4.78
2023-03-28T15:14:42.686Z,4.72
2023-03-28T15:17:18.028Z,4.79
2023-03-28T15:19:48.222Z,4.77
2023-03-28T15:22:22.178Z,4.84
2023-03-28T15:24:52.890Z,4.90
2023-03-28T15:27:40.438Z,4.53
2023-03-28T15:30:15.640Z,4.74
2023-03-28T15:32:43.160Z,4.76
2023-03-28T15:35:40.885Z,5.26
2023-03-28T15:38:25.414Z,6.43
2023-03-28T15:41:09.335Z,7.54
2023-03-28T15:43:52.665Z,7.60
2023-03-28T15:46:22.181Z,6.95
2023-03-28T15:48:51.125Z,7.35
2023-03-28T15:51:19.245Z,8.27
2023-03-28T15:53:49.083Z,8.40
2023-03-28T15:56:26.847Z,8.13
2023-03-28T15:59:00.837Z,8.30
2023-03-28T16:01:30.671Z,8.37
2023-03-28T16:04:27.862Z,7.92
2023-03-28T16:07:04.545Z,8.03
2023-03-28T16:09:32.289Z,7.62
2023-03-28T16:12:00.800Z,7.16
2023-03-28T16:14:49.440Z,6.05
2023-03-28T16:17:42.150Z,5.54
2023-03-28T16:20:26.126Z,6.01
2023-03-28T16:22:56.288Z,6.12
2023-03-28T16:25:23.213Z,5.15
2023-03-28T16:27:50.502Z,4.34
2023-03-28T16:30:29.457Z,3.92
2023-03-28T16:32:56.884Z,3.60
2023-03-28T16:35:27.061Z,3.36
2023-03-28T16:37:54.874Z,3.20
2023-03-28T16:40:22.738Z,3.05
2023-03-28T16:42:51.048Z,3.01
2023-03-28T16:45:20.368Z,2.87
2023-03-28T16:47:48.328Z,2.81
2023-03-28T16:50:16.488Z,2.58
2023-03-28T16:52:43.610Z,2.63
2023-03-28T16:55:16.223Z,2.51
2023-03-28T16:57:45.169Z,2.51
2023-03-28T17:00:18.043Z,2.37
2023-03-28T17:02:47.746Z,2.34
2023-03-28T17:05:16.796Z,2.34
2023-03-28T17:07:43.768Z,2.23
2023-03-28T17:10:11.627Z,2.20
2023-03-28T17:12:40.015Z,2.07
2023-03-28T17:15:09.018Z,2.32
2023-03-28T17:17:36.392Z,2.28
2023-03-28T17:20:04.940Z,2.13
2023-03-28T17:22:31.993Z,1.93
2023-03-28T17:25:00.577Z,2.01
2023-03-28T17:27:28.269Z,1.77
2023-03-28T17:29:55.452Z,1.85
2023-03-28T17:32:26.470Z,1.80
2023-03-28T17:34:53.962Z,1.86
2023-03-28T17:37:22.470Z,1.83
2023-03-28T17:39:49.530Z,1.77
2023-03-28T17:42:16.962Z,1.68
2023-03-28T17:44:44.272Z,1.68
2023-03-28T17:47:15.493Z,1.64
2023-03-28T17:49:43.244Z,1.56
2023-03-28T17:52:10.749Z,1.63
2023-03-28T17:54:38.187Z,1.49
2023-03-28T17:57:06.870Z,1.48
2023-03-28T17:59:34.080Z,1.37
2023-03-28T18:02:02.312Z,1.46
2023-03-28T18:04:30.305Z,1.38
2023-03-28T18:07:17.396Z,1.17
2023-03-28T18:09:46.073Z,1.38
2023-03-28T18:12:13.635Z,1.30
2023-03-28T18:14:40.815Z,1.31
2023-03-28T18:17:08.463Z,1.27
2023-03-28T18:19:35.990Z,1.21
2023-03-28T18:22:03.663Z,1.05
2023-03-28T18:24:30.756Z,0.99
2023-03-28T18:26:59.198Z,1.08
2023-03-28T18:29:26.166Z,1.09
2023-03-28T18:31:53.296Z,1.10
2023-03-28T18:34:20.611Z,1.04
2023-03-28T18:36:48.381Z,1.04
2023-03-28T18:39:16.176Z,1.03
2023-03-28T18:41:43.292Z,0.96
2023-03-28T18:44:10.753Z,0.93
2023-03-28T18:46:37.930Z,0.96
2023-03-28T18:49:04.874Z,0.98
2023-03-28T18:51:32.171Z,0.77
2023-03-28T18:54:03.878Z,0.98
2023-03-28T18:56:32.182Z,0.80
2023-03-28T18:58:59.410Z,1.05
2023-03-28T19:01:30.140Z,1.08
2023-03-28T19:03:57.863Z,0.96
2023-03-28T19:06:25.184Z,0.86
2023-03-28T19:08:52.458Z,0.89
2023-03-28T19:11:19.834Z,0.86
2023-03-28T19:13:47.119Z,0.78
2023-03-28T19:16:16.587Z,0.22
2023-03-28T19:18:45.405Z,0.80
2023-03-28T19:21:12.982Z,0.58
2023-03-28T19:23:40.514Z,0.75
2023-03-28T19:26:09.634Z,0.68
2023-03-28T19:28:36.759Z,0.66
2023-03-28T19:31:07.029Z,0.39
2023-03-28T19:33:35.919Z,0.48
2023-03-28T19:36:03.680Z,0.55
2023-03-28T19:38:33.578Z,0.60
2023-03-28T19:41:03.894Z,0.58
2023-03-28T19:43:31.411Z,0.67
2023-03-28T19:46:04.396Z,0.68
2023-03-28T19:48:32.695Z,0.66
2023-03-28T19:50:59.680Z,0.58
2023-03-28T19:53:26.861Z,0.44
2023-03-28T19:55:56.764Z,0.59
2023-03-28T19:58:24.452Z,0.56
2023-03-28T20:00:52.163Z,0.54
2023-03-28T20:03:19.426Z,0.53
2023-03-28T20:05:47.926Z,0.51
2023-03-28T20:08:16.195Z,0.51
2023-03-28T20:10:45.065Z,0.56
2023-03-28T20:13:12.453Z,0.55
2023-03-28T20:15:41.599Z,0.53
2023-03-28T20:18:20.426Z,0.52
2023-03-28T20:20:53.061Z,0.35
2023-03-28T20:23:23.626Z,0.38
2023-03-28T20:25:52.332Z,0.42
2023-03-28T20:28:21.111Z,0.35
2023-03-28T20:30:48.388Z,0.40
2023-03-28T20:33:15.650Z,0.48
2023-03-28T20:35:42.955Z,0.43
2023-03-28T20:38:09.986Z,0.47
2023-03-28T20:40:40.828Z,0.38
2023-03-28T20:43:10.173Z,0.39
2023-03-28T20:45:38.648Z,0.38
2023-03-28T20:48:10.537Z,0.28
2023-03-28T20:50:41.439Z,0.37
2023-03-28T20:53:09.239Z,0.39
2023-03-28T20:55:36.216Z,0.42
2023-03-28T20:58:03.425Z,0.38
2023-03-28T21:00:32.154Z,0.50
2023-03-28T21:02:59.850Z,0.45
2023-03-28T21:05:27.547Z,0.55
2023-03-28T21:07:55.580Z,0.56
2023-03-28T21:10:23.408Z,0.57
2023-03-28T21:12:51.050Z,0.60
2023-03-28T21:15:18.219Z,0.37
2023-03-28T21:17:49.474Z,0.64
2023-03-28T21:20:35.358Z,0.62
2023-03-28T21:23:02.300Z,0.75
2023-03-28T21:25:29.275Z,0.89
2023-03-28T21:27:57.056Z,0.72
2023-03-28T21:30:24.298Z,0.84
2023-03-28T21:32:51.197Z,0.99
2023-03-28T21:35:19.152Z,0.89
2023-03-28T21:37:47.254Z,1.04
2023-03-28T21:40:14.467Z,1.04
2023-03-28T21:42:44.511Z,1.09
2023-03-28T21:45:21.174Z,1.07
2023-03-28T21:47:51.913Z,1.19
2023-03-28T21:50:24.375Z,1.10
2023-03-28T21:52:53.495Z,0.90
2023-03-28T21:55:28.837Z,1.04
2023-03-28T21:57:57.994Z,1.18
2023-03-28T22:00:29.451Z,1.05
2023-03-28T22:02:57.058Z,0.95
2023-03-28T22:05:30.129Z,1.08
2023-03-28T22:08:06.387Z,1.04
2023-03-28T22:11:00.465Z,1.04
2023-03-28T22:13:30.082Z,1.01
2023-03-28T22:16:01.729Z,0.92
2023-03-28T22:18:34.193Z,0.83
2023-03-28T22:21:06.690Z,0.78
2023-03-28T22:23:33.777Z,0.71
2023-03-28T22:26:02.052Z,0.75
2023-03-28T22:28:31.591Z,0.70
2023-03-28T22:31:00.293Z,0.69
2023-03-28T22:33:32.123Z,0.57
2023-03-28T22:36:05.175Z,0.57
2023-03-28T22:38:40.484Z,0.51
2023-03-28T22:41:08.964Z,0.44
2023-03-28T22:43:37.526Z,0.33
2023-03-28T22:46:06.400Z,0.34
2023-03-28T22:48:33.344Z,0.37
2023-03-28T22:51:01.652Z,0.25
2023-03-28T22:53:29.014Z,0.31
2023-03-28T22:55:57.760Z,0.15
2023-03-28T22:58:32.765Z,0.23
2023-03-28T23:01:00.945Z,0.19
2023-03-28T23:03:30.133Z,0.01
2023-03-28T23:06:08.092Z,0.08
2023-03-28T23:08:36.768Z,0.08
2023-03-28T23:11:05.204Z,-0.06
2023-03-28T23:13:36.943Z,-0.11
2023-03-28T23:16:04.457Z,-0.04
2023-03-28T23:18:36.408Z,-0.19
2023-03-28T23:21:04.418Z,-0.04
2023-03-28T23:23:33.424Z,-0.07
2023-03-28T23:26:04.989Z,-0.13
2023-03-28T23:28:36.459Z,-0.14
2023-03-28T23:31:08.933Z,-0.40
2023-03-28T23:33:38.957Z,-0.19
2023-03-28T23:36:15.366Z,-0.23
2023-03-28T23:38:43.222Z,-0.72
2023-03-28T23:41:10.573Z,-0.22
2023-03-28T23:43:37.968Z,-0.25
2023-03-28T23:46:05.595Z,-0.37
2023-03-28T23:48:32.804Z,-0.38
2023-03-28T23:51:02.059Z,-0.36
2023-03-28T23:53:29.975Z,-0.51
2023-03-28T23:55:57.026Z,-0.40
2023-03-28T23:58:24.090Z,-0.47
